Atlantic - Newfoundland: Past 24 Hour Conditions

 

St. Anthony Airport

01:30 PM NDT 21 October 2014
This table is a summary of hourly weather conditions for the past 24 hours.
Date / Time
(NDT)
Wind(knots) Conditions Visibility(km) Pressure(kPa) Air tempC) Relative humidity(%) Dew pointC)
21 October 2014
13:30 WNW 15 Cloudy 16 101.3 7 62 0
12:30 WNW 14 gust 21 Mostly Cloudy 16 101.2 7 64 1
11:30 W 17 gust 22 Cloudy 16 101.0 6 68 1
10:30 W 19 Mainly Sunny 16 100.9 6 73 1
9:30 WSW 15 Sunny 16 100.8 5 76 1
8:30 WSW 16 gust 21 Mainly Sunny 16 100.6 4 78 1
7:30 WSW 15 gust 24 Cloudy 16 100.4 5 78 1
6:30 WSW 20 gust 26 Cloudy 16 100.1 5 78 1
5:30 WSW 17 gust 27 Light Rain 16 99.9 4 84 2
4:30 WSW 22 gust 28 Cloudy 16 99.6 5 78 1
3:30 WSW 23 gust 31 Cloudy 16 99.4 5 80 2
2:30 WSW 24 gust 34 Cloudy 16 99.2 5 84 3
1:30 WSW 27 gust 36 Light Rain 16 98.9 5 87 3
0:30 WSW 33 gust 43 Light Rain 5 98.7 6 89 4
20 October 2014
23:30 SW 27 gust 40 Light Rain 8 98.7 7 89 5
22:30 SW 34 gust 45 Light Rain 15 98.6 7 88 5
21:30 SW 33 gust 47 Light Rain 4 98.5 7 90 5
20:30 SSW 32 gust 48 Light Rain 5 98.5 7 91 6
19:30 SSW 28 gust 45 Light Rain 6 98.4 7 90 6
18:30 SSW 31 gust 45 Cloudy 16 98.3 8 84 5
17:30 SSW 31 gust 49 Light Rain 16 98.2 9 85 6
16:30 SSW 31 gust 40 Cloudy 16 98.1 10 79 7
15:30 S 28 gust 40 Mostly Cloudy 16 97.9 12 92 11
14:30 ESE 25 gust 33 Light Rain 0.8 N/A 11 98 10
13:30 ESE 23 gust 30 Light Rain 6 N/A 11 99 11
 
Map of Atlantic - Newfoundland marine weather areas Southwestern Grand Banks - 44138 Banquereau - 44139 Tail of the Bank - 44140 Nickerson Bank - 44251 Northeast Burgeo Bank - 44255 Blanc-Sablon Airport Cap Whittle Chevery Natashquan Airport Heath Point Miscou Island Grand Étang Ingonish Beach North Mountain St.Paul Island J.A. Douglas McCurdy Sydney Airport Charlottetown Airport East Point North Cape Argentia Bonavista Burgeo Cape Race Corner Brook Daniel's Harbour Englee Ferolle Point La Scie Port aux Basques Rocky Harbour Sagona Island St. Anthony Airport St. John's Int'l Airport St. Lawrence Stephenville Airport Twillingate Winterland Wreckhouse Cartwright Airport Mary's Harbour Grates Cove Pool's Island Marticot Island Long Pond Îles de la Madeleine Airport
Legend: buoyBuoy land stationLand Station